Holderness, New Hampshire
Current Conditions -  °F | °C
As of 12:55 AM on Thursday 23 Oct 2014 (Local Time) from K1P1 Reporting Station
Overcast Overcast  
Wind Chill: 54°   Ceiling: 3100
Heat Index: 54°   Visibility: 10mi
Dew Point: 47°   Wind: 8mph
Humidity: 80%   Direction: 70°ENE
Pressure: 29.96"   Gusts: NA
Location:  43.73°N, 71.59°W
Report Text: K1P1 230455Z AUTO 07007KT 030V090 10SM OVC031 12/09 A2996 RMK AO2 LTG DSNT S T01200086
Loading
Personal Weather Stations






























Interactive Weather Map
Tropical Storm Tracking
New forecast layout! Learn more

10-Day Weather Forecast

Advertisements
Track Severe Weather on mobile